createdAt,value
2019-03-05T00:01:25.185Z,9.10
2019-03-05T00:03:53.912Z,8.98
2019-03-05T00:06:21.734Z,9.02
2019-03-05T00:08:49.792Z,8.88
2019-03-05T00:11:17.834Z,8.87
2019-03-05T00:13:45.706Z,9.08
2019-03-05T00:16:13.779Z,9.10
2019-03-05T00:18:41.694Z,8.92
2019-03-05T00:21:09.517Z,8.95
2019-03-05T00:23:51.497Z,8.88
2019-03-05T00:26:23.043Z,8.84
2019-03-05T00:29:14.109Z,8.74
2019-03-05T00:31:42.153Z,8.77
2019-03-05T00:34:36.454Z,8.58
2019-03-05T00:37:37.738Z,8.56
2019-03-05T00:40:21.187Z,8.65
2019-03-05T00:43:03.980Z,8.45
2019-03-05T00:46:13.476Z,8.46
2019-03-05T00:48:58.654Z,8.52
2019-03-05T00:52:09.631Z,8.41
2019-03-05T00:54:47.615Z,8.49
2019-03-05T00:58:02.562Z,8.31
2019-03-05T01:00:47.630Z,8.30
2019-03-05T01:03:41.662Z,8.36
2019-03-05T01:06:27.801Z,8.30
2019-03-05T01:08:56.401Z,8.29
2019-03-05T01:11:25.028Z,8.30
2019-03-05T01:13:53.317Z,8.22
2019-03-05T01:16:25.088Z,8.25
2019-03-05T01:18:52.951Z,8.13
2019-03-05T01:21:20.919Z,8.16
2019-03-05T01:23:48.906Z,8.15
2019-03-05T01:26:16.931Z,8.23
2019-03-05T01:28:44.997Z,8.22
2019-03-05T01:31:42.112Z,8.16
2019-03-05T01:34:19.834Z,8.12
2019-03-05T01:36:53.968Z,7.93
2019-03-05T01:39:41.592Z,7.95
2019-03-05T01:42:09.777Z,8.06
2019-03-05T01:44:37.570Z,8.00
2019-03-05T01:47:05.734Z,7.98
2019-03-05T01:49:33.602Z,8.02
2019-03-05T01:52:01.622Z,7.88
2019-03-05T01:54:29.655Z,7.96
2019-03-05T01:56:57.472Z,7.90
2019-03-05T01:59:25.375Z,7.94
2019-03-05T02:01:53.508Z,7.96
2019-03-05T02:04:22.111Z,7.88
2019-03-05T02:06:49.998Z,7.96
2019-03-05T02:09:18.112Z,7.89
2019-03-05T02:11:46.164Z,7.90
2019-03-05T02:14:14.012Z,7.92
2019-03-05T02:16:42.464Z,7.92
2019-03-05T02:19:47.296Z,7.95
2019-03-05T02:22:34.381Z,7.86
2019-03-05T02:25:46.974Z,7.87
2019-03-05T02:28:46.096Z,7.90
2019-03-05T02:31:28.882Z,7.80
2019-03-05T02:34:28.643Z,7.78
2019-03-05T02:37:27.130Z,7.82
2019-03-05T02:40:51.811Z,7.80
2019-03-05T02:43:36.857Z,7.86
2019-03-05T02:46:52.278Z,7.84
2019-03-05T02:50:16.987Z,7.86
2019-03-05T02:53:29.262Z,7.83
2019-03-05T02:56:34.446Z,7.77
2019-03-05T02:59:01.521Z,7.78
2019-03-05T03:01:55.498Z,7.77
2019-03-05T03:04:26.213Z,7.76
2019-03-05T03:06:54.182Z,7.82
2019-03-05T03:10:04.817Z,7.85
2019-03-05T03:12:32.748Z,7.89
2019-03-05T03:15:00.540Z,7.79
2019-03-05T03:17:28.488Z,7.83
2019-03-05T03:19:56.478Z,7.99
2019-03-05T03:22:24.761Z,7.93
2019-03-05T03:24:52.606Z,7.94
2019-03-05T03:27:20.514Z,7.99
2019-03-05T03:29:48.469Z,7.91
2019-03-05T03:32:16.230Z,7.88
2019-03-05T03:34:45.049Z,7.87
2019-03-05T03:37:13.035Z,7.84
2019-03-05T03:39:41.049Z,7.83
2019-03-05T03:42:09.033Z,7.88
2019-03-05T03:44:36.997Z,7.87
2019-03-05T03:47:04.945Z,7.81
2019-03-05T03:49:33.357Z,7.84
2019-03-05T03:52:01.144Z,7.79
2019-03-05T03:54:29.043Z,7.72
2019-03-05T03:56:57.846Z,7.65
2019-03-05T03:59:25.766Z,7.58
2019-03-05T04:01:53.645Z,7.56
2019-03-05T04:04:21.684Z,7.57
2019-03-05T04:06:49.646Z,7.54
2019-03-05T04:09:17.680Z,7.55
2019-03-05T04:11:45.589Z,7.44
2019-03-05T04:14:13.511Z,7.45
2019-03-05T04:16:41.324Z,7.50
2019-03-05T04:19:12.322Z,7.60
2019-03-05T04:21:40.330Z,7.40
2019-03-05T04:24:08.249Z,7.44
2019-03-05T04:26:36.067Z,7.38
2019-03-05T04:29:04.126Z,7.33
2019-03-05T04:31:33.066Z,7.29
2019-03-05T04:34:00.922Z,7.22
2019-03-05T04:36:28.790Z,7.25
2019-03-05T04:38:56.606Z,7.11
2019-03-05T04:41:24.497Z,7.06
2019-03-05T04:43:55.840Z,7.06
2019-03-05T04:46:37.675Z,6.99
2019-03-05T04:49:31.145Z,7.01
2019-03-05T04:52:09.002Z,6.94
2019-03-05T04:54:37.237Z,6.87
2019-03-05T04:57:05.123Z,6.86
2019-03-05T04:59:33.052Z,6.82
2019-03-05T05:02:00.907Z,6.85
2019-03-05T05:04:28.734Z,6.83
2019-03-05T05:06:56.617Z,6.87
2019-03-05T05:09:24.562Z,6.78
2019-03-05T05:11:52.517Z,6.82
2019-03-05T05:14:20.363Z,6.74
2019-03-05T05:16:48.131Z,6.84
2019-03-05T05:19:16.057Z,6.94
2019-03-05T05:21:44.057Z,7.00
2019-03-05T05:24:12.002Z,6.93
2019-03-05T05:26:40.468Z,6.98
2019-03-05T05:29:09.057Z,6.89
2019-03-05T05:31:36.831Z,6.99
2019-03-05T05:34:04.627Z,6.87
2019-03-05T05:36:32.508Z,6.78
2019-03-05T05:39:00.423Z,6.82
2019-03-05T05:41:28.373Z,6.73
2019-03-05T05:43:56.355Z,6.67
2019-03-05T05:46:24.273Z,6.78
2019-03-05T05:48:52.020Z,6.68
2019-03-05T05:51:19.947Z,6.70
2019-03-05T05:53:48.107Z,6.70
2019-03-05T05:56:15.962Z,6.68
2019-03-05T05:58:43.852Z,6.73
2019-03-05T06:01:12.651Z,6.73
2019-03-05T06:03:40.487Z,6.83
2019-03-05T06:06:09.117Z,6.74
2019-03-05T06:08:37.027Z,6.76
2019-03-05T06:11:05.109Z,6.89
2019-03-05T06:13:33.468Z,6.86
2019-03-05T06:16:01.511Z,6.96
2019-03-05T06:18:29.270Z,6.94
2019-03-05T06:20:57.188Z,6.96
2019-03-05T06:23:25.216Z,6.99
2019-03-05T06:25:53.351Z,7.01
2019-03-05T06:28:21.122Z,7.05
2019-03-05T06:30:49.122Z,6.97
2019-03-05T06:33:17.112Z,6.94
2019-03-05T06:35:45.057Z,6.89
2019-03-05T06:38:13.032Z,6.97
2019-03-05T06:40:41.526Z,7.13
2019-03-05T06:43:09.431Z,7.12
2019-03-05T06:45:37.312Z,7.23
2019-03-05T06:48:09.950Z,7.29
2019-03-05T06:50:38.512Z,7.25
2019-03-05T06:53:06.347Z,7.26
2019-03-05T06:55:34.946Z,7.42
2019-03-05T06:58:03.152Z,7.42
2019-03-05T07:00:35.780Z,7.48
2019-03-05T07:03:04.254Z,7.53
2019-03-05T07:06:25.967Z,7.64
2019-03-05T07:09:01.717Z,7.63
2019-03-05T07:12:12.655Z,7.67
2019-03-05T07:15:12.691Z,7.75
2019-03-05T07:17:44.745Z,7.84
2019-03-05T07:21:13.182Z,7.92
2019-03-05T07:24:14.695Z,7.94
2019-03-05T07:26:42.634Z,8.09
2019-03-05T07:29:10.737Z,8.16
2019-03-05T07:31:38.638Z,8.33
2019-03-05T07:34:10.250Z,8.34
2019-03-05T07:36:38.131Z,8.38
2019-03-05T07:39:07.699Z,8.45
2019-03-05T07:41:35.549Z,8.48
2019-03-05T07:44:04.195Z,8.58
2019-03-05T07:46:32.012Z,8.66
2019-03-05T07:48:59.936Z,8.83
2019-03-05T07:51:27.829Z,8.93
2019-03-05T07:53:55.715Z,9.00
2019-03-05T07:56:24.796Z,9.05
2019-03-05T07:58:52.655Z,9.12
2019-03-05T08:01:22.512Z,9.08
2019-03-05T08:03:50.463Z,9.05
2019-03-05T08:06:18.363Z,9.14
2019-03-05T08:09:22.913Z,9.12
2019-03-05T08:11:51.821Z,9.13
2019-03-05T08:14:55.543Z,9.06
2019-03-05T08:17:24.377Z,9.06
2019-03-05T08:19:54.215Z,8.99
2019-03-05T08:22:22.372Z,9.15
2019-03-05T08:24:50.259Z,9.10
2019-03-05T08:27:18.841Z,9.13
2019-03-05T08:29:46.705Z,9.09
2019-03-05T08:32:14.756Z,9.05
2019-03-05T08:34:42.768Z,9.10
2019-03-05T08:37:13.347Z,9.17
2019-03-05T08:39:40.585Z,9.15
2019-03-05T08:42:08.725Z,9.15
2019-03-05T08:44:36.784Z,9.22
2019-03-05T08:47:04.751Z,9.26
2019-03-05T08:49:32.752Z,9.27
2019-03-05T08:52:00.609Z,9.34
2019-03-05T08:54:34.499Z,9.37
2019-03-05T08:57:03.266Z,9.50
2019-03-05T08:59:32.614Z,9.49
2019-03-05T09:02:00.825Z,9.56
2019-03-05T09:04:28.608Z,9.67
2019-03-05T09:06:57.050Z,9.70
2019-03-05T09:09:25.063Z,9.76
2019-03-05T09:11:53.403Z,9.76
2019-03-05T09:14:21.478Z,9.84
2019-03-05T09:16:49.444Z,9.92
2019-03-05T09:19:17.335Z,9.92
2019-03-05T09:21:45.277Z,9.89
2019-03-05T09:24:13.298Z,9.92
2019-03-05T09:26:50.688Z,10.04
2019-03-05T09:29:11.140Z,10.15
2019-03-05T09:31:39.915Z,10.13
2019-03-05T09:34:07.786Z,10.16
2019-03-05T09:36:36.076Z,10.25
2019-03-05T09:39:07.820Z,10.18
2019-03-05T09:41:35.690Z,10.19
2019-03-05T09:44:03.705Z,10.26
2019-03-05T09:46:31.538Z,10.21
2019-03-05T09:48:59.513Z,10.20
2019-03-05T09:51:27.670Z,10.24
2019-03-05T09:53:55.501Z,10.22
2019-03-05T09:56:28.537Z,10.25
2019-03-05T09:58:56.913Z,10.30
2019-03-05T10:01:24.899Z,10.28
2019-03-05T10:03:52.771Z,10.31
2019-03-05T10:06:20.748Z,10.28
2019-03-05T10:08:48.688Z,10.33
2019-03-05T10:11:16.701Z,10.33
2019-03-05T10:13:44.666Z,10.34
2019-03-05T10:16:12.854Z,10.34
2019-03-05T10:18:41.686Z,10.32
2019-03-05T10:21:11.898Z,10.40
2019-03-05T10:23:40.168Z,10.35
2019-03-05T10:26:10.459Z,10.17
2019-03-05T10:28:38.445Z,10.13
2019-03-05T10:31:06.693Z,10.13
2019-03-05T10:33:34.778Z,10.17
2019-03-05T10:36:02.789Z,10.14
2019-03-05T10:38:30.827Z,10.10
2019-03-05T10:40:58.940Z,10.17
2019-03-05T10:43:26.888Z,10.15
2019-03-05T10:45:54.812Z,10.28
2019-03-05T10:48:23.231Z,10.28
2019-03-05T10:50:51.315Z,10.33
2019-03-05T10:53:19.929Z,10.36
2019-03-05T10:55:48.420Z,10.44
2019-03-05T10:58:17.237Z,10.33
2019-03-05T11:00:46.473Z,10.41
2019-03-05T11:03:15.012Z,10.40
2019-03-05T11:05:43.256Z,10.44
2019-03-05T11:08:16.584Z,10.50
2019-03-05T11:10:44.657Z,10.42
2019-03-05T11:13:12.738Z,10.33
2019-03-05T11:15:40.794Z,10.18
2019-03-05T11:18:09.006Z,10.30
2019-03-05T11:20:37.149Z,10.17
2019-03-05T11:23:05.395Z,10.21
2019-03-05T11:25:33.439Z,10.01
2019-03-05T11:28:01.322Z,10.36
2019-03-05T11:30:36.107Z,10.67
2019-03-05T11:32:59.763Z,10.96
2019-03-05T11:35:27.925Z,10.95
2019-03-05T11:37:55.946Z,10.84
2019-03-05T11:40:24.626Z,10.91
2019-03-05T11:42:52.912Z,10.90
2019-03-05T11:45:26.245Z,10.72
2019-03-05T11:47:54.531Z,10.63
2019-03-05T11:50:23.034Z,10.57
2019-03-05T11:52:51.654Z,10.50
2019-03-05T11:55:20.354Z,10.48
2019-03-05T11:57:48.435Z,10.45
2019-03-05T12:00:21.318Z,10.38
2019-03-05T12:02:49.190Z,10.36
2019-03-05T12:05:17.257Z,10.24
2019-03-05T12:07:46.201Z,10.25
2019-03-05T12:10:17.334Z,10.16
2019-03-05T12:12:45.175Z,10.17
2019-03-05T12:15:14.126Z,10.14
2019-03-05T12:17:42.100Z,10.06
2019-03-05T12:20:11.172Z,10.11
2019-03-05T12:22:39.235Z,10.04
2019-03-05T12:25:08.984Z,10.14
2019-03-05T12:27:37.153Z,10.09
2019-03-05T12:30:06.160Z,10.16
2019-03-05T12:32:34.327Z,10.16
2019-03-05T12:35:02.211Z,10.40
2019-03-05T12:37:30.138Z,10.88
2019-03-05T12:39:58.032Z,11.32
2019-03-05T12:42:26.096Z,11.66
2019-03-05T12:44:54.976Z,11.95
2019-03-05T12:47:23.078Z,12.11
2019-03-05T12:49:51.118Z,12.29
2019-03-05T12:52:19.424Z,12.41
2019-03-05T12:54:47.498Z,12.32
2019-03-05T12:57:15.727Z,12.25
2019-03-05T12:59:43.906Z,12.16
2019-03-05T13:02:12.190Z,11.87
2019-03-05T13:04:40.296Z,11.68
2019-03-05T13:07:08.315Z,11.63
2019-03-05T13:09:36.456Z,11.60
2019-03-05T13:12:04.472Z,11.42
2019-03-05T13:14:32.363Z,11.33
2019-03-05T13:17:00.418Z,10.83
2019-03-05T13:19:28.420Z,10.79
2019-03-05T13:21:56.469Z,10.79
2019-03-05T13:24:25.040Z,10.92
2019-03-05T13:26:53.086Z,10.83
2019-03-05T13:29:21.126Z,10.73
2019-03-05T13:31:49.269Z,10.64
2019-03-05T13:34:19.893Z,10.73
2019-03-05T13:36:50.683Z,11.07
2019-03-05T13:39:22.278Z,11.31
2019-03-05T13:41:50.449Z,11.44
2019-03-05T13:44:32.099Z,11.49
2019-03-05T13:47:00.889Z,11.81
2019-03-05T13:49:44.850Z,11.79
2019-03-05T13:53:14.842Z,12.01
2019-03-05T13:56:12.253Z,12.14
2019-03-05T13:59:13.847Z,12.43
2019-03-05T14:01:42.023Z,12.52
2019-03-05T14:04:17.899Z,12.50
2019-03-05T14:07:36.348Z,12.66
2019-03-05T14:10:05.270Z,12.79
2019-03-05T14:12:34.698Z,12.85
2019-03-05T14:15:02.945Z,12.95
2019-03-05T14:17:38.453Z,12.51
2019-03-05T14:20:09.416Z,12.43
2019-03-05T14:22:37.536Z,12.29
2019-03-05T14:25:06.682Z,12.21
2019-03-05T14:27:34.810Z,12.10
2019-03-05T14:30:03.258Z,12.02
2019-03-05T14:32:31.548Z,11.81
2019-03-05T14:35:19.893Z,11.72
2019-03-05T14:37:47.992Z,11.62
2019-03-05T14:40:24.614Z,11.48
2019-03-05T14:42:49.515Z,11.42
2019-03-05T14:45:20.767Z,11.35
2019-03-05T14:47:48.977Z,11.18
2019-03-05T14:50:17.991Z,10.96
2019-03-05T14:52:46.169Z,10.58
2019-03-05T14:55:14.854Z,9.58
2019-03-05T14:57:42.886Z,9.46
2019-03-05T15:00:13.516Z,9.14
2019-03-05T15:02:41.728Z,8.72
2019-03-05T15:05:10.380Z,9.01
2019-03-05T15:07:46.950Z,9.07
2019-03-05T15:10:16.435Z,9.10
2019-03-05T15:12:44.676Z,8.93
2019-03-05T15:15:15.972Z,8.80
2019-03-05T15:17:44.375Z,8.29
2019-03-05T15:20:13.027Z,8.04
2019-03-05T15:22:41.257Z,7.97
2019-03-05T15:25:10.852Z,7.70
2019-03-05T15:27:39.071Z,7.71
2019-03-05T15:30:10.598Z,7.35
2019-03-05T15:32:38.684Z,7.47
2019-03-05T15:35:07.357Z,7.39
2019-03-05T15:37:35.340Z,7.65
2019-03-05T15:40:04.223Z,7.53
2019-03-05T15:42:32.399Z,7.64
2019-03-05T15:45:01.038Z,7.80
2019-03-05T15:47:29.163Z,7.83
2019-03-05T15:49:57.379Z,7.60
2019-03-05T15:52:25.535Z,7.62
2019-03-05T15:54:53.746Z,7.63
2019-03-05T15:57:26.161Z,7.79
2019-03-05T15:59:51.961Z,7.53
2019-03-05T16:02:20.029Z,7.64
2019-03-05T16:04:48.162Z,7.78
2019-03-05T16:07:16.640Z,7.72
2019-03-05T16:09:47.500Z,7.65
2019-03-05T16:12:15.838Z,7.68
2019-03-05T16:14:44.105Z,7.49
2019-03-05T16:17:12.251Z,7.49
2019-03-05T16:19:40.382Z,7.56
2019-03-05T16:22:09.150Z,7.59
2019-03-05T16:24:37.667Z,7.51
2019-03-05T16:27:07.137Z,7.56
2019-03-05T16:29:35.224Z,7.60
2019-03-05T16:32:23.051Z,7.56
2019-03-05T16:35:27.936Z,7.52
2019-03-05T16:38:21.396Z,7.49
2019-03-05T16:41:06.218Z,7.39
2019-03-05T16:44:06.096Z,7.47
2019-03-05T16:46:56.405Z,7.39
2019-03-05T16:49:43.864Z,7.38
2019-03-05T16:52:35.962Z,7.26
2019-03-05T16:55:23.864Z,7.26
2019-03-05T16:58:17.083Z,7.27
2019-03-05T17:01:04.650Z,7.31
2019-03-05T17:04:04.431Z,7.13
2019-03-05T17:06:58.991Z,7.21
2019-03-05T17:09:44.739Z,7.02
2019-03-05T17:12:21.006Z,7.04
2019-03-05T17:14:49.167Z,7.04
2019-03-05T17:17:17.279Z,7.05
2019-03-05T17:19:46.687Z,7.01
2019-03-05T17:22:14.738Z,6.96
2019-03-05T17:24:42.835Z,6.99
2019-03-05T17:27:10.861Z,6.88
2019-03-05T17:29:38.999Z,6.93
2019-03-05T17:32:07.342Z,6.92
2019-03-05T17:34:36.002Z,7.01
2019-03-05T17:37:04.042Z,6.84
2019-03-05T17:39:32.079Z,6.82
2019-03-05T17:42:00.151Z,6.69
2019-03-05T17:44:28.703Z,6.66
2019-03-05T17:46:56.870Z,6.70
2019-03-05T17:49:25.779Z,6.69
2019-03-05T17:51:53.814Z,6.63
2019-03-05T17:54:21.938Z,6.53
2019-03-05T17:56:50.410Z,6.44
2019-03-05T17:59:18.439Z,6.49
2019-03-05T18:01:46.594Z,6.56
2019-03-05T18:04:15.786Z,6.55
2019-03-05T18:06:44.357Z,6.33
2019-03-05T18:09:13.202Z,6.43
2019-03-05T18:11:42.774Z,6.34
2019-03-05T18:14:22.035Z,6.46
2019-03-05T18:16:50.117Z,6.51
2019-03-05T18:19:18.224Z,6.58
2019-03-05T18:21:46.305Z,6.58
2019-03-05T18:24:14.468Z,6.61
2019-03-05T18:26:42.507Z,6.59
2019-03-05T18:29:10.648Z,6.63
2019-03-05T18:31:41.153Z,6.63
2019-03-05T18:34:09.329Z,6.53
2019-03-05T18:36:37.439Z,6.54
2019-03-05T18:39:05.970Z,6.53
2019-03-05T18:41:34.044Z,6.46
2019-03-05T18:44:02.398Z,6.56
2019-03-05T18:46:31.027Z,6.52
2019-03-05T18:48:59.189Z,6.59
2019-03-05T18:51:28.418Z,6.47
2019-03-05T18:53:56.495Z,6.41
2019-03-05T18:56:24.640Z,6.49
2019-03-05T18:58:53.888Z,6.45
2019-03-05T19:01:22.121Z,6.43
2019-03-05T19:03:50.191Z,6.42
2019-03-05T19:06:18.636Z,6.38
2019-03-05T19:08:46.691Z,6.39
2019-03-05T19:11:14.919Z,6.43
2019-03-05T19:13:42.979Z,6.46
2019-03-05T19:16:16.983Z,6.44
2019-03-05T19:18:45.256Z,6.37
2019-03-05T19:21:13.382Z,6.31
2019-03-05T19:23:41.530Z,6.40
2019-03-05T19:26:11.679Z,6.30
2019-03-05T19:28:39.850Z,6.29
2019-03-05T19:31:07.944Z,6.29
2019-03-05T19:33:36.062Z,6.30
2019-03-05T19:36:04.438Z,6.20
2019-03-05T19:38:33.654Z,6.17
2019-03-05T19:41:02.074Z,6.17
2019-03-05T19:43:30.198Z,6.16
2019-03-05T19:45:59.119Z,6.19
2019-03-05T19:48:28.523Z,6.19
2019-03-05T19:50:58.211Z,6.25
2019-03-05T19:53:26.373Z,6.19
2019-03-05T19:55:54.419Z,6.21
2019-03-05T19:58:22.509Z,6.20
2019-03-05T20:01:05.299Z,6.17
2019-03-05T20:03:33.426Z,6.17
2019-03-05T20:06:01.561Z,6.07
2019-03-05T20:08:39.382Z,6.07
2019-03-05T20:11:02.694Z,6.11
2019-03-05T20:13:30.838Z,6.23
2019-03-05T20:15:59.246Z,6.35
2019-03-05T20:18:38.870Z,6.58
2019-03-05T20:21:07.272Z,6.69
2019-03-05T20:23:36.823Z,6.66
2019-03-05T20:26:05.328Z,6.59
2019-03-05T20:28:33.416Z,6.44
2019-03-05T20:31:01.447Z,6.29
2019-03-05T20:33:29.659Z,6.32
2019-03-05T20:35:58.570Z,6.27
2019-03-05T20:38:27.510Z,6.25
2019-03-05T20:40:55.473Z,6.21
2019-03-05T20:43:23.733Z,6.21
2019-03-05T20:45:53.423Z,6.23
2019-03-05T20:48:21.497Z,6.21
2019-03-05T20:50:49.482Z,6.20
2019-03-05T20:53:18.366Z,6.08
2019-03-05T20:55:46.545Z,6.20
2019-03-05T20:58:14.615Z,6.08
2019-03-05T21:00:42.959Z,6.18
2019-03-05T21:03:11.082Z,6.16
2019-03-05T21:05:40.231Z,6.17
2019-03-05T21:08:08.639Z,6.11
2019-03-05T21:10:36.878Z,6.16
2019-03-05T21:13:05.065Z,6.18
2019-03-05T21:15:33.209Z,6.29
2019-03-05T21:18:02.453Z,6.38
2019-03-05T21:20:30.720Z,6.34
2019-03-05T21:22:58.861Z,6.49
2019-03-05T21:25:26.938Z,6.50
2019-03-05T21:27:55.000Z,6.46
2019-03-05T21:30:23.153Z,6.46
2019-03-05T21:32:51.384Z,6.44
2019-03-05T21:35:19.554Z,6.42
2019-03-05T21:37:47.725Z,6.43
2019-03-05T21:40:20.594Z,6.42
2019-03-05T21:42:48.999Z,6.40
2019-03-05T21:45:20.072Z,6.43
2019-03-05T21:47:48.177Z,6.40
2019-03-05T21:50:16.694Z,6.38
2019-03-05T21:52:45.541Z,6.43
2019-03-05T21:55:14.559Z,6.41
2019-03-05T21:57:42.743Z,6.45
2019-03-05T22:00:14.025Z,6.40
2019-03-05T22:02:43.236Z,6.42
2019-03-05T22:05:11.364Z,6.44
2019-03-05T22:07:39.441Z,6.47
2019-03-05T22:10:10.079Z,6.46
2019-03-05T22:12:39.357Z,6.47
2019-03-05T22:15:09.169Z,6.53
2019-03-05T22:17:37.424Z,6.48
2019-03-05T22:20:06.857Z,6.43
2019-03-05T22:22:34.911Z,6.46
2019-03-05T22:25:04.903Z,6.45
2019-03-05T22:27:32.944Z,6.45
2019-03-05T22:30:01.034Z,6.42
2019-03-05T22:32:29.803Z,6.43
2019-03-05T22:34:57.828Z,6.39
2019-03-05T22:37:25.979Z,6.41
2019-03-05T22:39:54.467Z,6.35
2019-03-05T22:42:23.023Z,6.31
2019-03-05T22:44:51.911Z,6.30
2019-03-05T22:47:19.996Z,6.40
2019-03-05T22:49:48.152Z,6.40
2019-03-05T22:52:17.417Z,6.36
2019-03-05T22:54:45.446Z,6.39
2019-03-05T22:57:13.666Z,6.40
2019-03-05T22:59:41.673Z,6.36
2019-03-05T23:02:09.890Z,6.35
2019-03-05T23:04:40.641Z,6.30
2019-03-05T23:07:09.230Z,6.36
2019-03-05T23:09:37.410Z,6.27
2019-03-05T23:12:06.145Z,6.28
2019-03-05T23:14:34.776Z,6.26
2019-03-05T23:17:03.017Z,6.23
2019-03-05T23:19:31.154Z,6.23
2019-03-05T23:21:59.559Z,6.20
2019-03-05T23:24:27.783Z,6.25
2019-03-05T23:26:55.961Z,6.13
2019-03-05T23:29:58.637Z,6.13
2019-03-05T23:32:27.599Z,6.14
2019-03-05T23:34:56.681Z,6.11
2019-03-05T23:37:25.087Z,6.19
2019-03-05T23:39:53.129Z,6.17
2019-03-05T23:42:21.770Z,6.21
2019-03-05T23:44:50.164Z,6.20
2019-03-05T23:47:18.298Z,6.22
2019-03-05T23:49:46.357Z,6.23
2019-03-05T23:52:14.526Z,6.26
2019-03-05T23:54:42.447Z,6.32
2019-03-05T23:57:10.533Z,6.29
2019-03-05T23:59:38.567Z,6.30
